Time;durP1;ratioP1;P1;durP2;ratioP2;P2;SDS_P1;SDS_P2;PMS_P1;PMS_P2;Temp;Humidity;BMP_temperature;BMP_pressure;BME280_temperature;BME280_humidity;BME280_pressure;Samples;Min_cycle;Max_cycle;Signal;HPM_P1;HPM_P2
2022/10/21 00:01:41;;;;;;;1.00;0.90;;;;;;;;;;5086314;28;20455;-81
2022/10/21 00:04:08;;;;;;;0.70;0.70;;;;;;;;;;5102888;28;20559;-80
2022/10/21 00:06:35;;;;;;;0.60;0.60;;;;;;;;;;5107770;28;20487;-80
2022/10/21 00:09:01;;;;;;;0.60;0.60;;;;;;;;;;5104010;28;20442;-81
2022/10/21 00:11:29;;;;;;;1.53;1.43;;;;;;;;;;5103059;28;20464;-81
2022/10/21 00:13:56;;;;;;;0.60;0.60;;;;;;;;;;5086027;28;20443;-81
2022/10/21 00:16:23;;;;;;;4.10;2.73;;;;;;;;;;5101123;28;20453;-81
2022/10/21 00:18:50;;;;;;;0.90;0.90;;;;;;;;;;5110052;28;20445;-81
2022/10/21 00:21:19;;;;;;;0.60;0.60;;;;;;;;;;5105282;28;21211;-80
2022/10/21 00:23:46;;;;;;;1.77;1.67;;;;;;;;;;5100051;28;20430;-81
2022/10/21 00:26:13;;;;;;;0.70;0.70;;;;;;;;;;5081642;28;20450;-81
2022/10/21 00:28:42;;;;;;;1.63;1.53;;;;;;;;;;5099885;28;20440;-81
2022/10/21 00:31:10;;;;;;;0.70;0.70;;;;;;;;;;5086199;28;20446;-81
2022/10/21 00:33:36;;;;;;;3.00;1.27;;;;;;;;;;5100762;28;20473;-81
2022/10/21 00:36:06;;;;;;;0.60;0.60;;;;;;;;;;5102600;28;20465;-81
2022/10/21 00:38:34;;;;;;;0.70;0.70;;;;;;;;;;5105731;28;20560;-81
2022/10/21 00:41:01;;;;;;;0.70;0.70;;;;;;;;;;5101475;28;20455;-81
2022/10/21 00:43:27;;;;;;;0.70;0.70;;;;;;;;;;5096489;28;20449;-80
2022/10/21 00:45:57;;;;;;;0.67;0.67;;;;;;;;;;5098393;28;20466;-81
2022/10/21 00:48:29;;;;;;;0.60;0.60;;;;;;;;;;5107110;28;20444;-80
2022/10/21 00:50:59;;;;;;;0.70;0.70;;;;;;;;;;5096746;28;20511;-81
2022/10/21 00:53:27;;;;;;;1.47;1.37;;;;;;;;;;5099747;28;20762;-82
2022/10/21 00:55:58;;;;;;;0.67;0.67;;;;;;;;;;5107929;28;20435;-80
2022/10/21 00:58:29;;;;;;;1.47;0.90;;;;;;;;;;5104960;28;20543;-81
2022/10/21 01:01:00;;;;;;;0.70;0.70;;;;;;;;;;5101218;28;20426;-82
2022/10/21 01:03:30;;;;;;;0.70;0.70;;;;;;;;;;5100129;28;20441;-80
2022/10/21 01:06:03;;;;;;;0.60;0.60;;;;;;;;;;5089718;28;20529;-81
2022/10/21 01:08:34;;;;;;;0.73;0.73;;;;;;;;;;5102093;28;20491;-81
2022/10/21 01:11:05;;;;;;;0.70;0.70;;;;;;;;;;5095430;28;20763;-80
2022/10/21 01:13:38;;;;;;;0.60;0.60;;;;;;;;;;5100236;28;20450;-81
2022/10/21 01:16:13;;;;;;;0.60;0.60;;;;;;;;;;5100764;28;20564;-80
2022/10/21 01:18:46;;;;;;;0.70;0.70;;;;;;;;;;5083738;28;20447;-81
2022/10/21 01:21:30;;;;;;;0.63;0.63;;;;;;;;;;5096741;28;20835;-81
2022/10/21 01:24:13;;;;;;;2.60;1.37;;;;;;;;;;5107753;28;20446;-81
2022/10/21 01:26:56;;;;;;;0.70;0.70;;;;;;;;;;5109791;28;20540;-80
2022/10/21 01:29:42;;;;;;;1.23;1.23;;;;;;;;;;5116324;27;20435;-80
2022/10/21 01:32:19;;;;;;;0.60;0.60;;;;;;;;;;5109425;28;20474;-80
2022/10/21 01:34:54;;;;;;;1.00;1.00;;;;;;;;;;5099019;28;20463;-80
2022/10/21 01:37:31;;;;;;;1.00;1.00;;;;;;;;;;5090067;28;20614;-81
2022/10/21 01:40:04;;;;;;;1.03;1.03;;;;;;;;;;5098858;28;20828;-80
2022/10/21 01:42:38;;;;;;;1.57;1.47;;;;;;;;;;5085295;28;20544;-80
2022/10/21 01:45:13;;;;;;;0.70;0.70;;;;;;;;;;5100820;28;20504;-80
2022/10/21 01:47:49;;;;;;;0.80;0.80;;;;;;;;;;5102442;28;20473;-81
2022/10/21 01:50:24;;;;;;;0.70;0.70;;;;;;;;;;5092425;28;20451;-81
2022/10/21 01:52:56;;;;;;;0.63;0.63;;;;;;;;;;5104710;28;20494;-80
2022/10/21 01:55:28;;;;;;;1.00;1.00;;;;;;;;;;5088491;28;20438;-80
2022/10/21 01:58:02;;;;;;;0.63;0.63;;;;;;;;;;5083500;28;20456;-80
2022/10/21 02:00:32;;;;;;;0.73;0.73;;;;;;;;;;5099816;28;20449;-80
2022/10/21 02:03:07;;;;;;;6.13;1.30;;;;;;;;;;5092078;28;20481;-80
2022/10/21 02:05:35;;;;;;;0.70;0.70;;;;;;;;;;5101029;28;21008;-80
2022/10/21 02:08:07;;;;;;;1.43;1.33;;;;;;;;;;5105662;28;20541;-80
2022/10/21 02:10:42;;;;;;;0.70;0.70;;;;;;;;;;5105636;28;20452;-81
2022/10/21 02:13:10;;;;;;;0.60;0.60;;;;;;;;;;5103789;28;20551;-81
2022/10/21 02:15:40;;;;;;;0.60;0.60;;;;;;;;;;5096242;28;20458;-81
2022/10/21 02:18:18;;;;;;;0.67;0.67;;;;;;;;;;5102442;28;20956;-82
2022/10/21 02:20:45;;;;;;;0.70;0.70;;;;;;;;;;5108280;28;20851;-81
2022/10/21 02:23:14;;;;;;;0.70;0.70;;;;;;;;;;5093396;28;20434;-81
2022/10/21 02:25:43;;;;;;;1.10;1.10;;;;;;;;;;5083587;28;20503;-82
2022/10/21 02:28:11;;;;;;;0.60;0.60;;;;;;;;;;5101430;28;20455;-81
2022/10/21 02:30:40;;;;;;;1.07;1.07;;;;;;;;;;5094046;28;20460;-80
2022/10/21 02:33:10;;;;;;;1.07;1.07;;;;;;;;;;5095733;28;20454;-81
2022/10/21 02:35:42;;;;;;;0.90;0.90;;;;;;;;;;5101568;28;20551;-80
2022/10/21 02:38:15;;;;;;;0.80;0.80;;;;;;;;;;5100574;28;20432;-81
2022/10/21 02:40:43;;;;;;;0.60;0.60;;;;;;;;;;5082628;28;20449;-79
2022/10/21 02:43:13;;;;;;;0.80;0.80;;;;;;;;;;5102129;28;20449;-81
2022/10/21 02:45:40;;;;;;;0.70;0.70;;;;;;;;;;5106963;28;20504;-82
2022/10/21 02:48:07;;;;;;;0.60;0.60;;;;;;;;;;5089677;28;20460;-81
2022/10/21 02:50:34;;;;;;;1.07;1.00;;;;;;;;;;5103744;28;20965;-80
2022/10/21 02:53:02;;;;;;;0.70;0.70;;;;;;;;;;5102027;28;20439;-80
2022/10/21 02:55:29;;;;;;;0.60;0.60;;;;;;;;;;5101281;28;20852;-81
2022/10/21 02:57:58;;;;;;;1.30;1.20;;;;;;;;;;5101175;28;20457;-81
2022/10/21 03:00:25;;;;;;;0.60;0.60;;;;;;;;;;5090450;28;20452;-81
2022/10/21 03:02:58;;;;;;;0.70;0.70;;;;;;;;;;5103543;28;20537;-80
2022/10/21 03:05:26;;;;;;;0.60;0.60;;;;;;;;;;5095148;28;20478;-81
2022/10/21 03:07:53;;;;;;;0.70;0.70;;;;;;;;;;5105075;28;20526;-80
2022/10/21 03:10:21;;;;;;;0.70;0.70;;;;;;;;;;5108079;28;20847;-81
2022/10/21 03:12:49;;;;;;;2.27;1.13;;;;;;;;;;5105573;28;20477;-81
2022/10/21 03:15:15;;;;;;;0.60;0.60;;;;;;;;;;5102777;28;20582;-81
2022/10/21 03:17:46;;;;;;;0.60;0.60;;;;;;;;;;5103825;28;20493;-81
2022/10/21 03:20:15;;;;;;;0.93;0.80;;;;;;;;;;5089922;28;20456;-81
2022/10/21 03:22:43;;;;;;;0.90;0.90;;;;;;;;;;5105189;28;21027;-81
2022/10/21 03:25:11;;;;;;;0.70;0.70;;;;;;;;;;5094537;28;20466;-81
2022/10/21 03:27:42;;;;;;;0.80;0.80;;;;;;;;;;5108484;28;20445;-81
2022/10/21 03:30:09;;;;;;;0.90;0.80;;;;;;;;;;5098663;28;20449;-82
2022/10/21 03:32:38;;;;;;;0.70;0.70;;;;;;;;;;5102221;28;20450;-82
2022/10/21 03:35:05;;;;;;;0.63;0.63;;;;;;;;;;5112892;27;20432;-82
2022/10/21 03:37:32;;;;;;;0.60;0.60;;;;;;;;;;5099661;28;20424;-82
2022/10/21 03:39:59;;;;;;;0.60;0.60;;;;;;;;;;5104818;28;20440;-82
2022/10/21 03:42:27;;;;;;;0.60;0.60;;;;;;;;;;5103155;28;20930;-81
2022/10/21 03:44:57;;;;;;;0.60;0.60;;;;;;;;;;5106976;28;20461;-82
2022/10/21 03:47:24;;;;;;;0.70;0.70;;;;;;;;;;5106862;28;20593;-82
2022/10/21 03:49:51;;;;;;;0.73;0.73;;;;;;;;;;5104296;28;20439;-81
2022/10/21 03:52:18;;;;;;;0.70;0.70;;;;;;;;;;5086642;28;20536;-81
2022/10/21 03:54:44;;;;;;;0.60;0.60;;;;;;;;;;5104331;28;20435;-81
2022/10/21 03:57:11;;;;;;;0.60;0.60;;;;;;;;;;5098086;28;20448;-81
2022/10/21 03:59:38;;;;;;;1.40;1.30;;;;;;;;;;5109412;28;20808;-81
2022/10/21 04:02:06;;;;;;;1.07;0.87;;;;;;;;;;5101928;28;20463;-82
2022/10/21 04:04:34;;;;;;;0.80;0.80;;;;;;;;;;5086539;28;20465;-80
2022/10/21 04:07:01;;;;;;;0.70;0.70;;;;;;;;;;5100462;28;21056;-82
2022/10/21 04:09:28;;;;;;;0.60;0.60;;;;;;;;;;5102957;28;20456;-80
2022/10/21 04:11:55;;;;;;;3.83;1.80;;;;;;;;;;5104700;28;20425;-80
2022/10/21 04:14:22;;;;;;;0.70;0.70;;;;;;;;;;5099226;28;20986;-81
2022/10/21 04:16:49;;;;;;;0.60;0.60;;;;;;;;;;5105259;28;20479;-81
2022/10/21 04:19:29;;;;;;;0.60;0.60;;;;;;;;;;5106067;28;20445;-81
2022/10/21 04:21:56;;;;;;;0.63;0.63;;;;;;;;;;5101799;28;21041;-81
2022/10/21 04:24:23;;;;;;;0.60;0.60;;;;;;;;;;5105540;28;20536;-81
2022/10/21 04:26:50;;;;;;;0.70;0.70;;;;;;;;;;5095522;28;20457;-82
2022/10/21 04:29:16;;;;;;;0.67;0.67;;;;;;;;;;5098631;28;20445;-81
2022/10/21 04:31:44;;;;;;;0.60;0.60;;;;;;;;;;5106487;28;20471;-82
2022/10/21 04:34:11;;;;;;;0.90;0.90;;;;;;;;;;5105595;28;20455;-82
2022/10/21 04:36:39;;;;;;;0.60;0.60;;;;;;;;;;5100750;28;20465;-80
2022/10/21 04:39:07;;;;;;;1.43;1.33;;;;;;;;;;5103945;27;20436;-81
2022/10/21 04:41:34;;;;;;;0.70;0.70;;;;;;;;;;5109274;28;20550;-82
2022/10/21 04:44:01;;;;;;;0.70;0.70;;;;;;;;;;5105163;28;20438;-82
2022/10/21 04:46:28;;;;;;;0.70;0.70;;;;;;;;;;5108393;28;20755;-81
2022/10/21 04:48:55;;;;;;;0.60;0.60;;;;;;;;;;5109062;28;20434;-80
2022/10/21 04:51:22;;;;;;;0.70;0.70;;;;;;;;;;5100401;28;20513;-79
2022/10/21 04:53:51;;;;;;;0.60;0.60;;;;;;;;;;5101013;28;20460;-80
2022/10/21 04:56:17;;;;;;;0.70;0.70;;;;;;;;;;5100549;28;20442;-80
2022/10/21 04:58:45;;;;;;;0.70;0.70;;;;;;;;;;5099585;28;21000;-80
2022/10/21 05:01:12;;;;;;;0.97;0.97;;;;;;;;;;5094276;28;20445;-79
2022/10/21 05:03:39;;;;;;;0.67;0.67;;;;;;;;;;5104651;28;20476;-80
2022/10/21 05:06:06;;;;;;;0.60;0.60;;;;;;;;;;5103081;28;20506;-79
2022/10/21 05:08:33;;;;;;;0.97;0.87;;;;;;;;;;5102830;28;20987;-81
2022/10/21 05:11:02;;;;;;;0.60;0.60;;;;;;;;;;5104945;28;20445;-80
2022/10/21 05:13:29;;;;;;;0.60;0.60;;;;;;;;;;5099143;28;20530;-79
2022/10/21 05:15:56;;;;;;;0.60;0.60;;;;;;;;;;5084353;28;20483;-80
2022/10/21 05:18:23;;;;;;;0.70;0.70;;;;;;;;;;5123848;27;20446;-79
2022/10/21 05:20:50;;;;;;;0.60;0.60;;;;;;;;;;5105058;27;20512;-80
2022/10/21 05:23:17;;;;;;;0.60;0.60;;;;;;;;;;5095750;28;20566;-79
2022/10/21 05:25:45;;;;;;;0.60;0.60;;;;;;;;;;5084999;28;20462;-80
2022/10/21 05:28:13;;;;;;;0.60;0.60;;;;;;;;;;5106276;28;20442;-81
2022/10/21 05:30:40;;;;;;;0.60;0.60;;;;;;;;;;5101472;28;20445;-80
2022/10/21 05:33:07;;;;;;;0.60;0.60;;;;;;;;;;5087591;28;20462;-80
2022/10/21 05:35:34;;;;;;;1.37;0.97;;;;;;;;;;5100202;28;20456;-80
2022/10/21 05:38:00;;;;;;;0.60;0.60;;;;;;;;;;5088361;28;20853;-80
2022/10/21 05:40:27;;;;;;;0.60;0.60;;;;;;;;;;5103820;28;20477;-81
2022/10/21 05:42:54;;;;;;;0.70;0.70;;;;;;;;;;5087658;28;20461;-81
2022/10/21 05:45:23;;;;;;;1.00;0.80;;;;;;;;;;5104266;28;20428;-80
2022/10/21 05:47:49;;;;;;;0.60;0.60;;;;;;;;;;5088661;28;20459;-79
2022/10/21 05:50:17;;;;;;;1.00;1.00;;;;;;;;;;5088975;28;20495;-81
2022/10/21 05:52:43;;;;;;;0.70;0.70;;;;;;;;;;5094947;28;20445;-80
2022/10/21 05:55:11;;;;;;;0.80;0.80;;;;;;;;;;5109285;28;20437;-80
2022/10/21 05:57:38;;;;;;;0.60;0.60;;;;;;;;;;5084830;28;20444;-80
2022/10/21 06:00:05;;;;;;;0.60;0.60;;;;;;;;;;5103398;28;20444;-80
2022/10/21 06:02:33;;;;;;;0.60;0.60;;;;;;;;;;5096668;28;20556;-79
2022/10/21 06:05:00;;;;;;;0.60;0.60;;;;;;;;;;5102032;28;20502;-80
2022/10/21 06:07:26;;;;;;;0.70;0.70;;;;;;;;;;5103932;28;20487;-79
2022/10/21 06:09:53;;;;;;;0.80;0.80;;;;;;;;;;5095945;28;20439;-80
2022/10/21 06:12:20;;;;;;;0.60;0.60;;;;;;;;;;5100986;28;20973;-79
2022/10/21 06:14:47;;;;;;;0.60;0.60;;;;;;;;;;5110446;28;20442;-80
2022/10/21 06:17:17;;;;;;;0.60;0.60;;;;;;;;;;5110552;28;20454;-80
2022/10/21 06:19:47;;;;;;;0.70;0.70;;;;;;;;;;5085508;28;20484;-79
2022/10/21 06:22:17;;;;;;;0.60;0.60;;;;;;;;;;5106449;28;20460;-79
2022/10/21 06:24:44;;;;;;;0.70;0.70;;;;;;;;;;5087537;28;20449;-79
2022/10/21 06:27:11;;;;;;;0.70;0.70;;;;;;;;;;5087147;28;20466;-80
2022/10/21 06:29:38;;;;;;;1.33;1.23;;;;;;;;;;5102476;28;20452;-80
2022/10/21 06:32:05;;;;;;;0.60;0.60;;;;;;;;;;5110837;28;20442;-80
2022/10/21 06:34:32;;;;;;;0.93;0.93;;;;;;;;;;5106114;28;20447;-80
2022/10/21 06:37:00;;;;;;;0.90;0.90;;;;;;;;;;5109864;28;20467;-78
2022/10/21 06:39:26;;;;;;;0.70;0.70;;;;;;;;;;5111337;28;20937;-80
2022/10/21 06:41:53;;;;;;;0.60;0.60;;;;;;;;;;5087531;28;20503;-80
2022/10/21 06:44:38;;;;;;;0.63;0.63;;;;;;;;;;5105537;28;20917;-80
2022/10/21 06:47:06;;;;;;;0.70;0.70;;;;;;;;;;5112172;28;20471;-80
2022/10/21 06:49:33;;;;;;;0.60;0.60;;;;;;;;;;5106799;28;20441;-79
2022/10/21 06:52:01;;;;;;;0.60;0.60;;;;;;;;;;5089299;28;20485;-80
2022/10/21 06:54:31;;;;;;;0.70;0.70;;;;;;;;;;5105953;28;20443;-80
2022/10/21 06:56:58;;;;;;;0.60;0.60;;;;;;;;;;5103807;28;20435;-81
2022/10/21 06:59:25;;;;;;;0.80;0.80;;;;;;;;;;5089267;28;20487;-79
2022/10/21 07:01:53;;;;;;;0.60;0.60;;;;;;;;;;5110760;28;20455;-79
2022/10/21 07:04:28;;;;;;;0.80;0.80;;;;;;;;;;5111688;28;20440;-79
2022/10/21 07:06:55;;;;;;;0.77;0.77;;;;;;;;;;5108217;28;20571;-79
2022/10/21 07:09:23;;;;;;;0.60;0.60;;;;;;;;;;5111520;28;20437;-79
2022/10/21 07:11:50;;;;;;;0.60;0.60;;;;;;;;;;5101818;28;20440;-79
2022/10/21 07:14:17;;;;;;;0.60;0.60;;;;;;;;;;5106428;28;20498;-80
2022/10/21 07:16:45;;;;;;;1.30;1.20;;;;;;;;;;5104645;28;20527;-80
2022/10/21 07:19:14;;;;;;;0.70;0.70;;;;;;;;;;5102695;28;20458;-79
2022/10/21 07:21:40;;;;;;;0.70;0.70;;;;;;;;;;5106684;28;20501;-81
2022/10/21 07:24:08;;;;;;;0.70;0.70;;;;;;;;;;5108231;28;20433;-81
2022/10/21 07:26:57;;;;;;;0.60;0.60;;;;;;;;;;5108122;28;20489;-80
2022/10/21 07:29:24;;;;;;;0.60;0.60;;;;;;;;;;5091825;28;20445;-81
2022/10/21 07:31:51;;;;;;;0.70;0.70;;;;;;;;;;5110774;28;20528;-79
2022/10/21 07:34:17;;;;;;;1.00;0.90;;;;;;;;;;5105899;28;20476;-77
2022/10/21 07:36:47;;;;;;;0.60;0.60;;;;;;;;;;5086594;28;20931;-80
2022/10/21 07:39:15;;;;;;;0.70;0.70;;;;;;;;;;5097865;28;21241;-80
2022/10/21 07:41:43;;;;;;;0.60;0.60;;;;;;;;;;5103277;28;20455;-80
2022/10/21 07:44:11;;;;;;;0.80;0.80;;;;;;;;;;5101956;28;20882;-80
2022/10/21 07:46:40;;;;;;;0.70;0.70;;;;;;;;;;5107077;28;21000;-79
2022/10/21 07:49:06;;;;;;;0.60;0.60;;;;;;;;;;5103490;28;20433;-80
2022/10/21 07:51:33;;;;;;;0.60;0.60;;;;;;;;;;5085366;28;20466;-80
2022/10/21 07:54:00;;;;;;;0.70;0.60;;;;;;;;;;5094775;28;20456;-81
2022/10/21 07:56:30;;;;;;;0.60;0.60;;;;;;;;;;5098881;28;20448;-81
2022/10/21 07:58:57;;;;;;;0.70;0.70;;;;;;;;;;5096512;28;20433;-80
2022/10/21 08:01:25;;;;;;;1.10;1.10;;;;;;;;;;5101762;28;20984;-80
2022/10/21 08:03:53;;;;;;;1.03;0.93;;;;;;;;;;5102912;28;20438;-80
2022/10/21 08:06:21;;;;;;;0.60;0.60;;;;;;;;;;5096591;28;20841;-79
2022/10/21 08:08:49;;;;;;;0.67;0.67;;;;;;;;;;5103898;28;20438;-80
2022/10/21 08:11:20;;;;;;;0.80;0.80;;;;;;;;;;5088774;28;20438;-79
2022/10/21 08:13:47;;;;;;;0.70;0.60;;;;;;;;;;5104898;28;20481;-77
2022/10/21 08:16:14;;;;;;;0.60;0.60;;;;;;;;;;5101841;28;20540;-81
2022/10/21 08:18:42;;;;;;;0.63;0.60;;;;;;;;;;5109020;28;21002;-79
2022/10/21 08:21:08;;;;;;;0.60;0.60;;;;;;;;;;5107253;28;20461;-81
2022/10/21 08:23:36;;;;;;;0.70;0.70;;;;;;;;;;5106478;28;20445;-80
2022/10/21 08:26:03;;;;;;;0.60;0.60;;;;;;;;;;5115266;28;20457;-82
2022/10/21 08:28:30;;;;;;;0.70;0.70;;;;;;;;;;5113272;28;20557;-83
2022/10/21 08:31:04;;;;;;;0.60;0.60;;;;;;;;;;5092719;28;20450;-81
2022/10/21 08:33:31;;;;;;;0.60;0.60;;;;;;;;;;5103949;28;20544;-82
2022/10/21 08:36:03;;;;;;;0.90;0.90;;;;;;;;;;5107729;28;20472;-81
2022/10/21 08:38:29;;;;;;;0.60;0.60;;;;;;;;;;5108157;28;20472;-80
2022/10/21 08:40:58;;;;;;;0.70;0.70;;;;;;;;;;5112428;28;20921;-80
2022/10/21 08:43:26;;;;;;;0.60;0.60;;;;;;;;;;5103295;28;20481;-80
2022/10/21 08:45:55;;;;;;;0.60;0.60;;;;;;;;;;5095474;28;20457;-80
2022/10/21 08:48:24;;;;;;;1.37;1.27;;;;;;;;;;5108204;28;20555;-80
2022/10/21 08:50:53;;;;;;;0.60;0.60;;;;;;;;;;5111869;28;20482;-80
2022/10/21 08:53:26;;;;;;;1.00;1.00;;;;;;;;;;5110171;28;20433;-80
2022/10/21 08:55:57;;;;;;;0.60;0.60;;;;;;;;;;5099916;28;20914;-81
2022/10/21 08:58:25;;;;;;;0.70;0.70;;;;;;;;;;5105635;28;20437;-80
2022/10/21 09:00:54;;;;;;;0.63;0.63;;;;;;;;;;5105747;28;20454;-79
2022/10/21 09:03:26;;;;;;;0.70;0.70;;;;;;;;;;5100011;28;20469;-79
2022/10/21 09:05:57;;;;;;;2.23;2.03;;;;;;;;;;5107278;28;20495;-78
2022/10/21 09:08:31;;;;;;;1.23;1.13;;;;;;;;;;5088039;28;21028;-79
2022/10/21 09:11:04;;;;;;;0.60;0.60;;;;;;;;;;5106016;28;20954;-79
2022/10/21 09:13:38;;;;;;;0.60;0.60;;;;;;;;;;5085324;28;20461;-80
2022/10/21 09:16:08;;;;;;;1.03;0.93;;;;;;;;;;5100022;28;20434;-81
2022/10/21 09:18:42;;;;;;;0.70;0.70;;;;;;;;;;5095958;28;20434;-82
2022/10/21 09:21:14;;;;;;;0.60;0.60;;;;;;;;;;5092444;28;20460;-80
2022/10/21 09:23:47;;;;;;;1.13;1.13;;;;;;;;;;5085666;28;20529;-80
2022/10/21 09:26:26;;;;;;;0.70;0.70;;;;;;;;;;5097202;28;20441;-80
2022/10/21 09:28:56;;;;;;;0.83;0.83;;;;;;;;;;5095405;28;20453;-80
2022/10/21 09:31:23;;;;;;;0.60;0.60;;;;;;;;;;5086382;28;20452;-81
2022/10/21 09:33:54;;;;;;;0.60;0.60;;;;;;;;;;5101822;28;20973;-80
2022/10/21 09:36:22;;;;;;;0.60;0.60;;;;;;;;;;5087655;28;20464;-79
2022/10/21 09:38:54;;;;;;;0.70;0.70;;;;;;;;;;5106651;28;20494;-80
2022/10/21 09:41:23;;;;;;;0.60;0.60;;;;;;;;;;5104722;28;20986;-80
2022/10/21 09:43:51;;;;;;;0.70;0.70;;;;;;;;;;5097997;28;20436;-79
2022/10/21 09:46:18;;;;;;;0.60;0.60;;;;;;;;;;5075917;28;20464;-78
2022/10/21 09:48:46;;;;;;;0.60;0.60;;;;;;;;;;5095348;28;20464;-80
2022/10/21 09:51:36;;;;;;;0.60;0.60;;;;;;;;;;5098614;28;20457;-79
2022/10/21 09:54:07;;;;;;;1.07;0.97;;;;;;;;;;5104096;28;20443;-80
2022/10/21 09:56:37;;;;;;;0.60;0.60;;;;;;;;;;5101589;28;20475;-80
2022/10/21 09:59:05;;;;;;;0.80;0.80;;;;;;;;;;5106362;28;20544;-80
2022/10/21 10:01:34;;;;;;;0.60;0.60;;;;;;;;;;5095678;28;20431;-79
2022/10/21 10:04:08;;;;;;;0.60;0.60;;;;;;;;;;5100696;28;20506;-80
2022/10/21 10:06:37;;;;;;;0.60;0.60;;;;;;;;;;5099377;28;20457;-79
2022/10/21 10:09:06;;;;;;;0.70;0.70;;;;;;;;;;5099135;28;20463;-79
2022/10/21 10:11:46;;;;;;;0.70;0.70;;;;;;;;;;5107257;28;20446;-79
2022/10/21 10:14:23;;;;;;;0.60;0.60;;;;;;;;;;5101395;28;20439;-79
2022/10/21 10:16:51;;;;;;;0.60;0.60;;;;;;;;;;5103292;28;20480;-79
2022/10/21 10:19:20;;;;;;;0.70;0.70;;;;;;;;;;5119778;28;20472;-79
2022/10/21 10:22:07;;;;;;;0.60;0.60;;;;;;;;;;5113213;28;20446;-80
2022/10/21 10:24:41;;;;;;;1.37;1.27;;;;;;;;;;5106364;28;20444;-79
2022/10/21 10:27:13;;;;;;;0.67;0.67;;;;;;;;;;5103278;28;20868;-79
2022/10/21 10:29:47;;;;;;;0.60;0.60;;;;;;;;;;5104475;28;20453;-79
2022/10/21 10:32:15;;;;;;;0.70;0.70;;;;;;;;;;5101817;28;20477;-80
2022/10/21 10:34:48;;;;;;;0.60;0.60;;;;;;;;;;5107175;28;20999;-79
2022/10/21 10:37:17;;;;;;;0.90;0.90;;;;;;;;;;5101793;28;20969;-79
2022/10/21 10:39:49;;;;;;;0.80;0.80;;;;;;;;;;5089776;28;20453;-79
2022/10/21 10:42:17;;;;;;;0.60;0.60;;;;;;;;;;5099495;28;20429;-79
2022/10/21 10:44:45;;;;;;;0.60;0.60;;;;;;;;;;5103993;28;20450;-79
2022/10/21 10:47:17;;;;;;;0.60;0.60;;;;;;;;;;5085059;28;20982;-79
2022/10/21 10:49:44;;;;;;;0.60;0.60;;;;;;;;;;5109183;28;20427;-79
2022/10/21 10:52:19;;;;;;;0.80;0.80;;;;;;;;;;5106551;28;20613;-80
2022/10/21 10:54:48;;;;;;;0.60;0.60;;;;;;;;;;5106775;28;20499;-80
2022/10/21 10:57:16;;;;;;;1.13;1.13;;;;;;;;;;5094000;28;20441;-80
2022/10/21 10:59:44;;;;;;;0.60;0.60;;;;;;;;;;5104185;28;20544;-80
2022/10/21 11:02:29;;;;;;;0.90;0.90;;;;;;;;;;5091937;28;20989;-82
2022/10/21 11:05:15;;;;;;;1.80;1.70;;;;;;;;;;5114424;28;20525;-80
2022/10/21 11:07:43;;;;;;;0.60;0.60;;;;;;;;;;5117376;28;20456;-80
2022/10/21 11:10:21;;;;;;;0.60;0.60;;;;;;;;;;5114515;28;20550;-81
2022/10/21 11:12:47;;;;;;;0.60;0.60;;;;;;;;;;5112698;28;20437;-80
2022/10/21 11:15:15;;;;;;;0.80;0.80;;;;;;;;;;5087601;28;20476;-80
2022/10/21 11:17:48;;;;;;;0.70;0.70;;;;;;;;;;5116002;28;20446;-81
2022/10/21 11:20:17;;;;;;;0.60;0.60;;;;;;;;;;5117683;28;20530;-80
2022/10/21 11:22:58;;;;;;;0.60;0.60;;;;;;;;;;5111776;28;20425;-81
2022/10/21 11:25:33;;;;;;;0.80;0.80;;;;;;;;;;5104585;28;20469;-80
2022/10/21 11:28:06;;;;;;;1.37;0.83;;;;;;;;;;5114447;28;20468;-81
2022/10/21 11:30:40;;;;;;;0.63;0.60;;;;;;;;;;5111205;28;20539;-81
2022/10/21 11:33:13;;;;;;;0.60;0.60;;;;;;;;;;5094334;28;20459;-81
2022/10/21 11:35:44;;;;;;;4.10;1.93;;;;;;;;;;5099013;28;20459;-81
2022/10/21 11:38:26;;;;;;;0.73;0.73;;;;;;;;;;5095939;28;20449;-81
2022/10/21 11:40:58;;;;;;;0.60;0.60;;;;;;;;;;5106729;28;20442;-80
2022/10/21 11:43:30;;;;;;;0.60;0.60;;;;;;;;;;5100643;28;20437;-81
2022/10/21 11:45:59;;;;;;;0.70;0.70;;;;;;;;;;5097727;28;20543;-81
2022/10/21 11:48:33;;;;;;;0.60;0.60;;;;;;;;;;5110214;28;20464;-80
2022/10/21 11:51:03;;;;;;;0.90;0.90;;;;;;;;;;5111199;28;20482;-81
2022/10/21 11:53:38;;;;;;;0.70;0.70;;;;;;;;;;5109328;28;20449;-82
2022/10/21 11:56:12;;;;;;;3.10;1.43;;;;;;;;;;5114626;28;20544;-81
2022/10/21 11:58:45;;;;;;;1.27;0.80;;;;;;;;;;5106890;28;20422;-81
2022/10/21 12:01:22;;;;;;;0.70;0.70;;;;;;;;;;5100912;28;20441;-81
2022/10/21 12:04:03;;;;;;;1.20;1.10;;;;;;;;;;5105247;28;20445;-81
2022/10/21 12:06:33;;;;;;;0.70;0.70;;;;;;;;;;5110991;28;20460;-81
2022/10/21 12:09:05;;;;;;;1.23;1.13;;;;;;;;;;5107690;28;20465;-80
2022/10/21 12:11:35;;;;;;;0.70;0.60;;;;;;;;;;5082819;28;20416;-80
2022/10/21 12:14:12;;;;;;;0.80;0.80;;;;;;;;;;5090481;28;20446;-81
2022/10/21 12:16:40;;;;;;;0.63;0.63;;;;;;;;;;5104391;28;20426;-80
2022/10/21 12:19:09;;;;;;;0.73;0.73;;;;;;;;;;5107824;28;20439;-81
2022/10/21 12:21:37;;;;;;;0.60;0.60;;;;;;;;;;5101022;28;20475;-81
2022/10/21 12:24:10;;;;;;;0.60;0.60;;;;;;;;;;5084641;28;20409;-80
2022/10/21 12:26:41;;;;;;;0.87;0.87;;;;;;;;;;5099034;28;20444;-79
2022/10/21 12:29:12;;;;;;;0.60;0.60;;;;;;;;;;5098760;28;20432;-79
2022/10/21 12:31:44;;;;;;;0.70;0.63;;;;;;;;;;5102835;28;20408;-79
2022/10/21 12:34:12;;;;;;;0.70;0.70;;;;;;;;;;5083944;28;20432;-79
2022/10/21 12:36:40;;;;;;;0.70;0.70;;;;;;;;;;5098847;28;20436;-79
2022/10/21 12:39:11;;;;;;;0.70;0.70;;;;;;;;;;5106339;28;20438;-78
2022/10/21 12:41:39;;;;;;;1.20;1.10;;;;;;;;;;5085241;28;20426;-79
2022/10/21 12:44:20;;;;;;;0.60;0.60;;;;;;;;;;5108096;28;20400;-79
2022/10/21 12:46:48;;;;;;;0.77;0.77;;;;;;;;;;5103718;28;20489;-79
2022/10/21 12:49:20;;;;;;;0.70;0.70;;;;;;;;;;5101917;28;20436;-79
2022/10/21 12:51:48;;;;;;;0.70;0.60;;;;;;;;;;5099224;28;20829;-79
2022/10/21 12:54:19;;;;;;;0.70;0.60;;;;;;;;;;5098393;28;20942;-78
2022/10/21 12:56:50;;;;;;;0.70;0.60;;;;;;;;;;5096621;28;20852;-78
2022/10/21 12:59:28;;;;;;;0.70;0.60;;;;;;;;;;5102449;28;20403;-79
2022/10/21 13:02:16;;;;;;;0.70;0.60;;;;;;;;;;5084310;28;20424;-78
2022/10/21 13:04:45;;;;;;;0.70;0.70;;;;;;;;;;5088942;28;20449;-78
2022/10/21 13:07:39;;;;;;;0.60;0.60;;;;;;;;;;5101537;28;20447;-78
2022/10/21 13:10:13;;;;;;;1.63;0.90;;;;;;;;;;5049751;28;20416;-78
2022/10/21 13:12:41;;;;;;;0.70;0.60;;;;;;;;;;5121654;27;20431;-79
2022/10/21 13:15:23;;;;;;;0.70;0.67;;;;;;;;;;5101405;28;20408;-77
2022/10/21 13:17:50;;;;;;;0.60;0.60;;;;;;;;;;5107896;28;20691;-76
2022/10/21 13:20:38;;;;;;;0.70;0.60;;;;;;;;;;5081819;28;20535;-78
2022/10/21 13:23:24;;;;;;;0.70;0.60;;;;;;;;;;5090082;28;20527;-78
2022/10/21 13:26:02;;;;;;;0.60;0.60;;;;;;;;;;5097937;28;20440;-78
2022/10/21 13:28:32;;;;;;;0.60;0.60;;;;;;;;;;5101643;28;20440;-76
2022/10/21 13:31:01;;;;;;;0.83;0.83;;;;;;;;;;5097523;28;20866;-79
2022/10/21 13:33:31;;;;;;;0.70;0.60;;;;;;;;;;5106207;28;20888;-78
2022/10/21 13:36:00;;;;;;;0.70;0.60;;;;;;;;;;5090946;28;20452;-79
2022/10/21 13:38:29;;;;;;;0.60;0.60;;;;;;;;;;5102860;28;20458;-78
2022/10/21 13:40:57;;;;;;;1.30;1.20;;;;;;;;;;5092727;28;20423;-78
2022/10/21 13:43:27;;;;;;;0.70;0.60;;;;;;;;;;5103797;28;20405;-78
2022/10/21 13:46:02;;;;;;;0.70;0.60;;;;;;;;;;5096692;28;20443;-78
2022/10/21 13:48:29;;;;;;;0.60;0.60;;;;;;;;;;5101063;28;20437;-79
2022/10/21 13:51:04;;;;;;;1.43;0.90;;;;;;;;;;5099612;28;20466;-78
2022/10/21 13:53:36;;;;;;;0.80;0.80;;;;;;;;;;5100334;28;21843;-79
2022/10/21 13:56:04;;;;;;;0.70;0.70;;;;;;;;;;5107851;28;20479;-79
2022/10/21 13:58:37;;;;;;;0.70;0.60;;;;;;;;;;5104214;28;20511;-78
2022/10/21 14:01:10;;;;;;;0.70;0.60;;;;;;;;;;5087454;28;20442;-78
2022/10/21 14:03:37;;;;;;;0.70;0.70;;;;;;;;;;5108365;28;20419;-78
2022/10/21 14:06:07;;;;;;;0.80;0.80;;;;;;;;;;5084138;28;20496;-77
2022/10/21 14:08:37;;;;;;;0.70;0.60;;;;;;;;;;5105948;28;20472;-78
2022/10/21 14:11:07;;;;;;;0.70;0.60;;;;;;;;;;5102091;28;20441;-78
2022/10/21 14:13:35;;;;;;;0.70;0.70;;;;;;;;;;5094969;28;20460;-77
2022/10/21 14:16:03;;;;;;;0.70;0.63;;;;;;;;;;5109254;28;20512;-78
2022/10/21 14:18:34;;;;;;;0.70;0.60;;;;;;;;;;5099124;28;20437;-79
2022/10/21 14:21:03;;;;;;;0.70;0.60;;;;;;;;;;5105588;28;20484;-78
2022/10/21 14:23:30;;;;;;;0.70;0.60;;;;;;;;;;5087385;28;20452;-77
2022/10/21 14:26:02;;;;;;;0.70;0.70;;;;;;;;;;5102265;28;20467;-77
2022/10/21 14:28:29;;;;;;;0.70;0.60;;;;;;;;;;5105878;28;20457;-78
2022/10/21 14:30:57;;;;;;;0.70;0.70;;;;;;;;;;5100489;28;20463;-77
2022/10/21 14:33:27;;;;;;;0.70;0.70;;;;;;;;;;5096097;28;20439;-78
2022/10/21 14:36:13;;;;;;;0.90;0.90;;;;;;;;;;5103370;28;20444;-77
2022/10/21 14:38:42;;;;;;;0.70;0.70;;;;;;;;;;5098987;28;20480;-77
2022/10/21 14:41:13;;;;;;;0.70;0.60;;;;;;;;;;5108364;28;20445;-76
2022/10/21 14:43:42;;;;;;;0.70;0.60;;;;;;;;;;5101671;28;20524;-77
2022/10/21 14:46:09;;;;;;;0.70;0.70;;;;;;;;;;5109727;28;20433;-76
2022/10/21 14:48:38;;;;;;;1.20;0.80;;;;;;;;;;5108245;28;20466;-77
2022/10/21 14:51:07;;;;;;;0.70;0.60;;;;;;;;;;5106614;28;20472;-78
2022/10/21 14:53:37;;;;;;;0.70;0.70;;;;;;;;;;5113435;28;20831;-76
2022/10/21 14:56:05;;;;;;;0.70;0.60;;;;;;;;;;5109526;28;20427;-78
2022/10/21 14:58:34;;;;;;;0.70;0.60;;;;;;;;;;5111432;28;20420;-77
2022/10/21 15:01:06;;;;;;;0.70;0.60;;;;;;;;;;5108244;28;20457;-78